createdAt,value
2023-10-10T00:02:30.161Z,96562.91
2023-10-10T00:04:57.253Z,96566.41
2023-10-10T00:07:27.934Z,96550.28
2023-10-10T00:09:57.499Z,96566.31
2023-10-10T00:12:30.535Z,96554.44
2023-10-10T00:14:59.180Z,96556.69
2023-10-10T00:17:36.194Z,96551.41
2023-10-10T00:20:22.612Z,96539.75
2023-10-10T00:22:51.188Z,96558.00
2023-10-10T00:25:20.427Z,96556.28
2023-10-10T00:27:57.019Z,96545.69
2023-10-10T00:30:24.023Z,96565.59
2023-10-10T00:32:53.314Z,96547.97
2023-10-10T00:35:20.253Z,96546.38
2023-10-10T00:37:47.140Z,96540.44
2023-10-10T00:40:26.664Z,96534.41
2023-10-10T00:42:53.532Z,96517.03
2023-10-10T00:45:22.677Z,96532.28
2023-10-10T00:47:54.079Z,96539.44
2023-10-10T00:50:26.241Z,96544.53
2023-10-10T00:52:57.102Z,96538.31
2023-10-10T00:55:28.532Z,96522.06
2023-10-10T00:58:00.440Z,96531.81
2023-10-10T01:00:32.142Z,96511.06
2023-10-10T01:03:22.418Z,96533.06
2023-10-10T01:05:56.604Z,96528.59
2023-10-10T01:08:35.178Z,96545.44
2023-10-10T01:11:06.337Z,96514.50
2023-10-10T01:13:35.104Z,96529.81
2023-10-10T01:16:06.425Z,96528.81
2023-10-10T01:18:53.232Z,96514.34
2023-10-10T01:21:32.006Z,96508.16
2023-10-10T01:24:07.316Z,96517.59
2023-10-10T01:26:46.165Z,96510.25
2023-10-10T01:29:23.083Z,96504.41
2023-10-10T01:31:52.833Z,96523.13
2023-10-10T01:34:32.651Z,96521.13
2023-10-10T01:37:15.851Z,96527.66
2023-10-10T01:39:56.304Z,96518.97
2023-10-10T01:42:33.116Z,96517.13
2023-10-10T01:45:09.696Z,96538.25
2023-10-10T01:47:41.352Z,96514.06
2023-10-10T01:50:12.203Z,96478.44
2023-10-10T01:52:39.608Z,96502.25
2023-10-10T01:55:07.325Z,96507.06
2023-10-10T01:57:34.165Z,96502.13
2023-10-10T02:00:20.960Z,96480.81
2023-10-10T02:02:51.301Z,96509.91
2023-10-10T02:05:36.423Z,96527.50
2023-10-10T02:08:12.349Z,96549.91
2023-10-10T02:10:47.643Z,96518.06
2023-10-10T02:13:16.076Z,96512.91
2023-10-10T02:15:43.364Z,96495.75
2023-10-10T02:18:33.847Z,96521.44
2023-10-10T02:21:07.573Z,96510.91
2023-10-10T02:23:35.482Z,96521.97
2023-10-10T02:26:30.064Z,96525.53
2023-10-10T02:29:15.931Z,96509.19
2023-10-10T02:31:46.390Z,96509.19
2023-10-10T02:34:13.350Z,96491.38
2023-10-10T02:36:42.493Z,96511.78
2023-10-10T02:39:18.406Z,96516.44
2023-10-10T02:41:52.256Z,96502.31
2023-10-10T02:44:37.347Z,96471.50
2023-10-10T02:47:04.406Z,96523.13
2023-10-10T02:49:31.567Z,96512.03
2023-10-10T02:52:07.769Z,96492.53
2023-10-10T02:54:35.779Z,96496.75
2023-10-10T02:57:26.716Z,96483.97
2023-10-10T03:00:01.469Z,96520.88
2023-10-10T03:02:31.822Z,96480.44
2023-10-10T03:05:02.804Z,96516.59
2023-10-10T03:07:31.538Z,96482.56
2023-10-10T03:10:04.850Z,96512.88
2023-10-10T03:12:33.044Z,96503.78
2023-10-10T03:15:19.086Z,96505.06
2023-10-10T03:17:57.153Z,96517.03
2023-10-10T03:20:46.865Z,96516.84
2023-10-10T03:23:14.009Z,96505.06
2023-10-10T03:25:48.809Z,96513.19
2023-10-10T03:28:20.314Z,96500.13
2023-10-10T03:31:06.903Z,96503.06
2023-10-10T03:33:37.612Z,96504.94
2023-10-10T03:36:21.046Z,96503.97
2023-10-10T03:38:52.367Z,96526.25
2023-10-10T03:41:27.085Z,96528.31
2023-10-10T03:44:14.227Z,96511.56
2023-10-10T03:46:59.180Z,96508.69
2023-10-10T03:49:45.070Z,96536.34
2023-10-10T03:52:31.439Z,96540.00
2023-10-10T03:55:17.453Z,96532.44
2023-10-10T03:58:03.475Z,96536.91
2023-10-10T04:00:48.742Z,96515.69
2023-10-10T04:03:34.455Z,96506.66
2023-10-10T04:06:24.704Z,96527.16
2023-10-10T04:09:10.687Z,96529.13
2023-10-10T04:11:56.226Z,96522.78
2023-10-10T04:14:43.770Z,96516.13
2023-10-10T04:17:32.017Z,96512.00
2023-10-10T04:20:17.496Z,96521.75
2023-10-10T04:23:02.976Z,96535.00
2023-10-10T04:25:48.534Z,96526.31
2023-10-10T04:28:36.297Z,96527.28
2023-10-10T04:31:27.904Z,96503.53
2023-10-10T04:34:13.386Z,96528.25
2023-10-10T04:36:58.950Z,96516.59
2023-10-10T04:39:44.488Z,96502.22
2023-10-10T04:42:30.061Z,96519.81
2023-10-10T04:45:18.284Z,96518.94
2023-10-10T04:48:03.736Z,96527.56
2023-10-10T04:50:49.136Z,96512.50
2023-10-10T04:53:34.941Z,96515.53
2023-10-10T04:56:20.651Z,96519.94
2023-10-10T04:59:06.268Z,96544.41
2023-10-10T05:01:51.906Z,96542.78
2023-10-10T05:04:37.510Z,96521.25
2023-10-10T05:07:23.047Z,96532.88
2023-10-10T05:10:08.559Z,96537.84
2023-10-10T05:12:54.238Z,96589.13
2023-10-10T05:15:41.816Z,96526.03
2023-10-10T05:18:29.913Z,96542.13
2023-10-10T05:21:15.490Z,96534.41
2023-10-10T05:23:49.285Z,96534.16
2023-10-10T05:26:20.570Z,96472.72
2023-10-10T05:28:48.721Z,96544.66
2023-10-10T05:31:21.118Z,96530.28
2023-10-10T05:33:48.854Z,96552.13
2023-10-10T05:36:16.316Z,96538.59
2023-10-10T05:38:47.040Z,96543.75
2023-10-10T05:41:14.127Z,96565.75
2023-10-10T05:43:41.186Z,96530.19
2023-10-10T05:46:08.233Z,96575.56
2023-10-10T05:48:37.141Z,96565.47
2023-10-10T05:51:10.174Z,96570.09
2023-10-10T05:53:38.026Z,96497.72
2023-10-10T05:56:14.568Z,96569.78
2023-10-10T05:58:46.270Z,96547.91
2023-10-10T06:01:15.375Z,96523.72
2023-10-10T06:03:43.428Z,96558.38
2023-10-10T06:06:14.530Z,96587.81
2023-10-10T06:08:43.537Z,96561.06
2023-10-10T06:11:11.614Z,96553.56
2023-10-10T06:13:41.549Z,96560.72
2023-10-10T06:16:17.134Z,96574.13
2023-10-10T06:18:49.315Z,96507.94
2023-10-10T06:21:16.635Z,96552.91
2023-10-10T06:23:46.366Z,96565.66
2023-10-10T06:26:16.509Z,96542.97
2023-10-10T06:28:49.618Z,96512.16
2023-10-10T06:31:22.101Z,96544.41
2023-10-10T06:33:52.663Z,96581.97
2023-10-10T06:36:23.320Z,96571.81
2023-10-10T06:39:13.056Z,96566.72
2023-10-10T06:41:51.713Z,96518.72
2023-10-10T06:44:33.837Z,96562.78
2023-10-10T06:47:02.271Z,96579.50
2023-10-10T06:49:44.890Z,96545.66
2023-10-10T06:52:19.823Z,96559.56
2023-10-10T06:54:58.492Z,96574.00
2023-10-10T06:57:46.051Z,96592.00
2023-10-10T07:00:29.805Z,96590.69
2023-10-10T07:02:58.813Z,96544.25
2023-10-10T07:05:34.918Z,96582.75
2023-10-10T07:08:14.181Z,96586.50
2023-10-10T07:10:44.750Z,72854.09
2023-10-10T07:13:15.735Z,72854.09
2023-10-10T07:15:43.712Z,72854.09
2023-10-10T07:18:16.178Z,72854.09
2023-10-10T07:21:05.598Z,72854.09
2023-10-10T07:23:40.929Z,72854.09
2023-10-10T07:26:20.322Z,72854.09
2023-10-10T07:28:49.746Z,96586.50
2023-10-10T07:31:23.609Z,96557.56
2023-10-10T07:34:05.444Z,96570.66
2023-10-10T07:36:32.896Z,96563.47
2023-10-10T07:39:18.514Z,96611.94
2023-10-10T07:41:48.709Z,96590.59
2023-10-10T07:44:18.413Z,96500.75
2023-10-10T07:47:16.647Z,96557.25
2023-10-10T07:49:52.477Z,96584.53
2023-10-10T07:52:21.856Z,96595.47
2023-10-10T07:55:05.241Z,96580.91
2023-10-10T07:57:52.142Z,96553.16
2023-10-10T08:00:19.917Z,96544.81
2023-10-10T08:02:54.988Z,96581.41
2023-10-10T08:05:22.065Z,96581.22
2023-10-10T08:07:52.255Z,96563.41
2023-10-10T08:10:31.980Z,96549.00
2023-10-10T08:13:01.883Z,96566.03
2023-10-10T08:15:31.775Z,96604.38
2023-10-10T08:18:00.876Z,96600.50
2023-10-10T08:20:35.713Z,96597.72
2023-10-10T08:23:06.480Z,96589.81
2023-10-10T08:25:34.390Z,96576.81
2023-10-10T08:28:02.602Z,96615.97
2023-10-10T08:30:31.968Z,96588.13
2023-10-10T08:33:02.928Z,96599.19
2023-10-10T08:35:31.524Z,96604.44
2023-10-10T08:38:05.957Z,96610.44
2023-10-10T08:40:37.470Z,96596.19
2023-10-10T08:43:13.785Z,96604.25
2023-10-10T08:45:51.378Z,96618.97
2023-10-10T08:48:27.794Z,96617.06
2023-10-10T08:51:05.266Z,96618.03
2023-10-10T08:53:44.080Z,96614.63
2023-10-10T08:56:16.585Z,96605.34
2023-10-10T08:58:43.563Z,96610.69
2023-10-10T09:01:12.930Z,96603.66
2023-10-10T09:03:46.840Z,96601.75
2023-10-10T09:06:24.202Z,96611.44
2023-10-10T09:08:53.326Z,96610.13
2023-10-10T09:11:24.763Z,96615.34
2023-10-10T09:13:53.978Z,96609.72
2023-10-10T09:16:43.055Z,96607.00
2023-10-10T09:19:12.886Z,96615.09
2023-10-10T09:21:52.650Z,96604.47
2023-10-10T09:24:31.007Z,96611.06
2023-10-10T09:26:59.325Z,96604.66
2023-10-10T09:29:35.765Z,96619.38
2023-10-10T09:32:07.620Z,96611.59
2023-10-10T09:34:42.869Z,96618.97
2023-10-10T09:37:15.419Z,96614.78
2023-10-10T09:39:56.152Z,96616.41
2023-10-10T09:42:25.417Z,96609.31
2023-10-10T09:45:15.646Z,96622.47
2023-10-10T09:48:06.852Z,96611.00
2023-10-10T09:50:39.206Z,96609.59
2023-10-10T09:53:21.305Z,96613.50
2023-10-10T09:55:55.006Z,96610.00
2023-10-10T09:58:28.064Z,96607.16
2023-10-10T10:01:14.246Z,96608.78
2023-10-10T10:03:51.353Z,96602.91
2023-10-10T10:06:45.996Z,96618.44
2023-10-10T10:09:21.920Z,96616.44
2023-10-10T10:12:21.123Z,96615.13
2023-10-10T10:15:01.302Z,96613.78
2023-10-10T10:17:55.821Z,96611.69
2023-10-10T10:20:51.418Z,96602.41
2023-10-10T10:23:35.336Z,96606.09
2023-10-10T10:26:12.267Z,96606.34
2023-10-10T10:28:43.820Z,96596.94
2023-10-10T10:31:29.820Z,96603.00
2023-10-10T10:34:11.864Z,96609.69
2023-10-10T10:36:57.735Z,96603.31
2023-10-10T10:39:36.424Z,96597.50
2023-10-10T10:42:16.971Z,96600.66
2023-10-10T10:44:46.842Z,96598.56
2023-10-10T10:47:40.494Z,96597.22
2023-10-10T10:50:42.400Z,72854.09
2023-10-10T10:53:32.641Z,72854.09
2023-10-10T10:56:19.772Z,72854.09
2023-10-10T10:58:57.675Z,72854.09
2023-10-10T11:01:29.157Z,72854.09
2023-10-10T11:03:58.495Z,72854.09
2023-10-10T11:06:31.643Z,72854.09
2023-10-10T11:09:11.198Z,72854.09
2023-10-10T11:11:38.457Z,72854.09
2023-10-10T11:14:20.136Z,96577.19
2023-10-10T11:16:48.019Z,96579.47
2023-10-10T11:19:20.483Z,96574.41
2023-10-10T11:21:50.242Z,96567.28
2023-10-10T11:24:27.462Z,96562.97
2023-10-10T11:27:08.568Z,96569.56
2023-10-10T11:29:46.746Z,96548.44
2023-10-10T11:32:25.233Z,96547.00
2023-10-10T11:35:33.329Z,96563.19
2023-10-10T11:38:18.217Z,96558.16
2023-10-10T11:40:53.715Z,96555.28
2023-10-10T11:43:28.920Z,96551.59
2023-10-10T11:45:58.125Z,96545.88
2023-10-10T11:48:32.263Z,96547.38
2023-10-10T11:51:03.898Z,96538.69
2023-10-10T11:53:38.601Z,96526.28
2023-10-10T11:56:18.752Z,96531.47
2023-10-10T11:58:54.160Z,96521.25
2023-10-10T12:01:58.892Z,96527.09
2023-10-10T12:04:34.827Z,96531.53
2023-10-10T12:07:07.284Z,96527.16
2023-10-10T12:09:34.937Z,96535.91
2023-10-10T12:12:06.390Z,96525.00
2023-10-10T12:14:43.831Z,96527.94
2023-10-10T12:17:16.273Z,96533.78
2023-10-10T12:19:58.366Z,96527.25
2023-10-10T12:22:25.767Z,96522.19
2023-10-10T12:24:56.333Z,96525.81
2023-10-10T12:27:31.611Z,96522.22
2023-10-10T12:30:06.344Z,96514.94
2023-10-10T12:32:40.251Z,96511.25
2023-10-10T12:35:11.450Z,96509.81
2023-10-10T12:37:47.584Z,96506.91
2023-10-10T12:40:15.945Z,96508.38
2023-10-10T12:42:44.976Z,96497.50
2023-10-10T12:45:16.323Z,96496.75
2023-10-10T12:47:44.996Z,96501.84
2023-10-10T12:50:16.663Z,96502.59
2023-10-10T12:53:03.625Z,96498.91
2023-10-10T12:55:35.636Z,96491.63
2023-10-10T12:58:11.747Z,96496.78
2023-10-10T13:00:51.361Z,96489.50
2023-10-10T13:03:32.354Z,96485.13
2023-10-10T13:06:04.574Z,96488.78
2023-10-10T13:08:55.638Z,96482.22
2023-10-10T13:11:34.184Z,96478.59
2023-10-10T13:14:26.142Z,96478.59
2023-10-10T13:17:07.071Z,96461.09
2023-10-10T13:19:38.552Z,96476.41
2023-10-10T13:22:22.268Z,96476.44
2023-10-10T13:24:52.765Z,96461.84
2023-10-10T13:27:22.983Z,96470.63
2023-10-10T13:29:54.548Z,96470.63
2023-10-10T13:32:26.127Z,96472.09
2023-10-10T13:34:53.781Z,96463.34
2023-10-10T13:37:23.532Z,96456.03
2023-10-10T13:39:56.132Z,96458.94
2023-10-10T13:42:25.368Z,96461.91
2023-10-10T13:45:10.782Z,96444.41
2023-10-10T13:47:42.694Z,96458.28
2023-10-10T13:50:28.494Z,96460.44
2023-10-10T13:52:58.368Z,96434.84
2023-10-10T13:55:25.236Z,96455.31
2023-10-10T13:57:55.155Z,96439.25
2023-10-10T14:00:31.311Z,96456.00
2023-10-10T14:03:07.454Z,96447.28
2023-10-10T14:05:43.063Z,96454.56
2023-10-10T14:08:11.551Z,96448.00
2023-10-10T14:10:42.643Z,96445.81
2023-10-10T14:13:29.676Z,96442.13
2023-10-10T14:16:02.817Z,96445.03
2023-10-10T14:18:32.582Z,96445.81
2023-10-10T14:21:09.761Z,96445.81
2023-10-10T14:23:42.190Z,96431.19
2023-10-10T14:26:18.750Z,96431.22
2023-10-10T14:28:54.430Z,96443.59
2023-10-10T14:31:25.243Z,96429.00
2023-10-10T14:33:52.726Z,96438.53
2023-10-10T14:36:24.651Z,96438.59
2023-10-10T14:39:01.442Z,96435.69
2023-10-10T14:41:31.733Z,96424.00
2023-10-10T14:44:01.890Z,96438.59
2023-10-10T14:46:35.661Z,96440.06
2023-10-10T14:49:30.413Z,96439.34
2023-10-10T14:52:02.077Z,96432.78
2023-10-10T14:54:39.207Z,96438.59
2023-10-10T14:57:25.707Z,96437.88
2023-10-10T14:59:57.306Z,96434.22
2023-10-10T15:02:28.461Z,96428.38
2023-10-10T15:05:00.202Z,96438.59
2023-10-10T15:07:29.680Z,96433.50
2023-10-10T15:09:59.602Z,96444.41
2023-10-10T15:12:31.413Z,96440.78
2023-10-10T15:14:58.866Z,96442.22
2023-10-10T15:17:28.546Z,96442.22
2023-10-10T15:19:57.782Z,96440.00
2023-10-10T15:22:26.516Z,96455.28
2023-10-10T15:25:02.698Z,96456.00
2023-10-10T15:27:31.805Z,96441.41
2023-10-10T15:30:01.145Z,96437.00
2023-10-10T15:32:35.528Z,96447.94
2023-10-10T15:35:04.897Z,96445.75
2023-10-10T15:37:43.465Z,96453.00
2023-10-10T15:40:22.956Z,96455.91
2023-10-10T15:42:55.950Z,96452.22
2023-10-10T15:45:23.100Z,96443.44
2023-10-10T15:47:56.076Z,96449.22
2023-10-10T15:50:23.463Z,96461.59
2023-10-10T15:52:53.042Z,96449.16
2023-10-10T15:55:25.762Z,96458.63
2023-10-10T15:57:54.064Z,96461.50
2023-10-10T16:00:34.392Z,96465.81
2023-10-10T16:03:08.180Z,96462.16
2023-10-10T16:05:43.071Z,96461.28
2023-10-10T16:08:15.372Z,96465.66
2023-10-10T16:10:46.822Z,96458.28
2023-10-10T16:13:13.646Z,96469.22
2023-10-10T16:15:45.261Z,96474.31
2023-10-10T16:18:12.249Z,96476.44
2023-10-10T16:20:43.487Z,96469.13
2023-10-10T16:23:12.758Z,96461.78
2023-10-10T16:25:41.971Z,96472.69
2023-10-10T16:28:13.357Z,96479.06
2023-10-10T16:30:45.171Z,96462.28
2023-10-10T16:33:21.405Z,96478.28
2023-10-10T16:35:53.031Z,96473.81
2023-10-10T16:38:23.540Z,96484.66
2023-10-10T16:40:55.145Z,96475.81
2023-10-10T16:43:29.324Z,96475.75
2023-10-10T16:46:03.625Z,96477.88
2023-10-10T16:48:32.809Z,96477.78
2023-10-10T16:51:03.194Z,96473.31
2023-10-10T16:53:35.583Z,96474.66
2023-10-10T16:56:08.443Z,96481.16
2023-10-10T16:58:37.564Z,96471.50
2023-10-10T17:01:13.460Z,96482.28
2023-10-10T17:03:46.969Z,96485.91
2023-10-10T17:06:26.935Z,96482.94
2023-10-10T17:09:05.802Z,96484.25
2023-10-10T17:11:39.380Z,96484.81
2023-10-10T17:14:08.860Z,96484.00
2023-10-10T17:16:35.904Z,96492.53
2023-10-10T17:19:22.740Z,96487.41
2023-10-10T17:21:54.444Z,96492.34
2023-10-10T17:24:21.412Z,96494.47
2023-10-10T17:26:50.467Z,96494.34
2023-10-10T17:29:24.863Z,96492.09
2023-10-10T17:31:54.462Z,96494.78
2023-10-10T17:34:34.545Z,96492.41
2023-10-10T17:37:01.701Z,96493.81
2023-10-10T17:39:36.116Z,96506.88
2023-10-10T17:42:03.775Z,96505.97
2023-10-10T17:44:39.547Z,96492.63
2023-10-10T17:47:09.073Z,96491.06
2023-10-10T17:49:40.481Z,96515.03
2023-10-10T17:52:12.477Z,96519.19
2023-10-10T17:54:42.667Z,96513.25
2023-10-10T17:57:15.555Z,96512.47
2023-10-10T17:59:47.206Z,96517.38
2023-10-10T18:02:16.618Z,96520.88
2023-10-10T18:04:44.019Z,96510.47
2023-10-10T18:07:13.896Z,96513.22
2023-10-10T18:09:45.814Z,96505.75
2023-10-10T18:12:19.911Z,96515.16
2023-10-10T18:14:53.095Z,96523.66
2023-10-10T18:17:23.196Z,96514.66
2023-10-10T18:19:52.628Z,96523.84
2023-10-10T18:22:19.938Z,96521.69
2023-10-10T18:24:49.201Z,96522.28
2023-10-10T18:27:18.616Z,96520.69
2023-10-10T18:29:49.659Z,96515.91
2023-10-10T18:32:16.860Z,96524.63
2023-10-10T18:34:48.298Z,96513.44
2023-10-10T18:37:17.637Z,96533.00
2023-10-10T18:39:44.516Z,96533.63
2023-10-10T18:42:16.635Z,96516.78
2023-10-10T18:44:43.581Z,72854.09
2023-10-10T18:47:17.956Z,72854.09
2023-10-10T18:49:47.076Z,72854.09
2023-10-10T18:52:16.202Z,72854.09
2023-10-10T18:54:46.405Z,72854.09
2023-10-10T18:57:15.741Z,72854.09
2023-10-10T18:59:44.279Z,72854.09
2023-10-10T19:02:18.723Z,72854.09
2023-10-10T19:04:47.926Z,72854.09
2023-10-10T19:07:17.522Z,72854.09
2023-10-10T19:09:51.257Z,72854.09
2023-10-10T19:12:18.125Z,72854.09
2023-10-10T19:14:49.564Z,72854.09
2023-10-10T19:17:16.779Z,72854.09
2023-10-10T19:19:46.006Z,72854.09
2023-10-10T19:22:15.335Z,72854.09
2023-10-10T19:24:42.280Z,72854.09
2023-10-10T19:27:11.898Z,72854.09
2023-10-10T19:29:41.421Z,72854.09
2023-10-10T19:32:08.410Z,72854.09
2023-10-10T19:34:37.803Z,72854.09
2023-10-10T19:37:04.991Z,72854.09
2023-10-10T19:39:36.597Z,72854.09
2023-10-10T19:42:08.415Z,72854.09
2023-10-10T19:44:37.825Z,72854.09
2023-10-10T19:47:11.751Z,72854.09
2023-10-10T19:49:41.032Z,72854.09
2023-10-10T19:52:07.964Z,72854.09
2023-10-10T19:54:36.262Z,72854.09
2023-10-10T19:57:05.728Z,72854.09
2023-10-10T19:59:35.193Z,72854.09
2023-10-10T20:02:02.421Z,72854.09
2023-10-10T20:04:39.720Z,96517.50
2023-10-10T20:07:14.876Z,96507.13
2023-10-10T20:09:46.989Z,96517.31
2023-10-10T20:12:16.230Z,96514.38
2023-10-10T20:14:45.540Z,96520.13
2023-10-10T20:17:17.436Z,96531.78
2023-10-10T20:19:44.528Z,96528.78
2023-10-10T20:22:16.028Z,96527.31
2023-10-10T20:24:43.125Z,96525.03
2023-10-10T20:27:15.000Z,96522.16
2023-10-10T20:29:46.375Z,96522.09
2023-10-10T20:32:13.802Z,96521.31
2023-10-10T20:34:46.164Z,96509.50
2023-10-10T20:37:15.490Z,96522.72
2023-10-10T20:39:42.556Z,96521.25
2023-10-10T20:42:09.700Z,72854.09
2023-10-10T20:44:37.195Z,72854.09
2023-10-10T20:47:05.146Z,72854.09
2023-10-10T20:49:39.315Z,72854.09
2023-10-10T20:52:11.471Z,72854.09
2023-10-10T20:54:42.580Z,72854.09
2023-10-10T20:57:15.219Z,72854.09
2023-10-10T20:59:43.958Z,72854.09
2023-10-10T21:02:15.908Z,72854.09
2023-10-10T21:04:46.375Z,72854.09
2023-10-10T21:07:18.195Z,72854.09
2023-10-10T21:09:45.475Z,72854.09
2023-10-10T21:12:17.290Z,72854.09
2023-10-10T21:14:46.630Z,72854.09
2023-10-10T21:17:15.181Z,72854.09
2023-10-10T21:19:46.447Z,72854.09
2023-10-10T21:22:17.977Z,72854.09
2023-10-10T21:24:52.314Z,72854.09
2023-10-10T21:27:21.406Z,72854.09
2023-10-10T21:29:53.114Z,72854.09
2023-10-10T21:32:22.600Z,72854.09
2023-10-10T21:34:51.926Z,72854.09
2023-10-10T21:37:24.480Z,72854.09
2023-10-10T21:39:54.393Z,72854.09
2023-10-10T21:42:24.790Z,72854.09
2023-10-10T21:44:56.741Z,72854.09
2023-10-10T21:47:28.513Z,72854.09
2023-10-10T21:49:57.810Z,72854.09
2023-10-10T21:52:24.741Z,72854.09
2023-10-10T21:54:58.986Z,72854.09
2023-10-10T21:57:26.328Z,72854.09
2023-10-10T21:59:55.963Z,72854.09
2023-10-10T22:02:22.843Z,72854.09
2023-10-10T22:04:52.339Z,72854.09
2023-10-10T22:07:29.759Z,72854.09
2023-10-10T22:09:57.164Z,72854.09
2023-10-10T22:12:28.776Z,72854.09
2023-10-10T22:15:00.942Z,72854.09
2023-10-10T22:17:32.927Z,72854.09
2023-10-10T22:20:05.814Z,72854.09
2023-10-10T22:22:35.497Z,72854.09
2023-10-10T22:25:12.021Z,72854.09
2023-10-10T22:27:40.537Z,72854.09
2023-10-10T22:30:13.889Z,72854.09
2023-10-10T22:32:45.894Z,72854.09
2023-10-10T22:35:19.777Z,72854.09
2023-10-10T22:38:01.691Z,72854.09
2023-10-10T22:40:29.079Z,72854.09
2023-10-10T22:42:58.070Z,72854.09
2023-10-10T22:45:25.135Z,72854.09
2023-10-10T22:47:55.203Z,72854.09
2023-10-10T22:50:27.822Z,72854.09
2023-10-10T22:52:55.124Z,72854.09
2023-10-10T22:55:28.589Z,72854.09
2023-10-10T22:58:01.991Z,72854.09
2023-10-10T23:03:14.216Z,72854.09
2023-10-10T23:05:44.553Z,72854.09
2023-10-10T23:08:13.010Z,72854.09
2023-10-10T23:10:44.725Z,72854.09
2023-10-10T23:13:16.992Z,72854.09
2023-10-10T23:15:50.088Z,72854.09
2023-10-10T23:18:18.128Z,72854.09
2023-10-10T23:20:45.831Z,72854.09
2023-10-10T23:23:17.399Z,72854.09
2023-10-10T23:25:49.883Z,72854.09
2023-10-10T23:28:16.793Z,72854.09
2023-10-10T23:30:43.873Z,72854.09
2023-10-10T23:33:13.103Z,72854.09
2023-10-10T23:35:41.060Z,72854.09
2023-10-10T23:38:08.108Z,72854.09
2023-10-10T23:40:47.180Z,72854.09
2023-10-10T23:43:23.112Z,72854.09
2023-10-10T23:45:58.601Z,72854.09
2023-10-10T23:48:32.642Z,72854.09
2023-10-10T23:51:07.971Z,72854.09
2023-10-10T23:53:38.401Z,72854.09
2023-10-10T23:56:06.721Z,72854.09
2023-10-10T23:58:33.917Z,72854.09
